sensor_id;sensor_type;location;lat;lon;timestamp;P1;durP1;ratioP1;P2;durP2;ratioP2
7541;SDS011;3812;50.006;8.230;2022-10-31T00:02:05;34.70;;;20.80;;
7541;SDS011;3812;50.006;8.230;2022-10-31T00:04:34;29.57;;;20.10;;
7541;SDS011;3812;50.006;8.230;2022-10-31T00:07:01;32.70;;;19.60;;
7541;SDS011;3812;50.006;8.230;2022-10-31T00:09:29;40.13;;;20.43;;
7541;SDS011;3812;50.006;8.230;2022-10-31T00:11:56;34.53;;;20.20;;
7541;SDS011;3812;50.006;8.230;2022-10-31T00:14:23;36.00;;;20.33;;
7541;SDS011;3812;50.006;8.230;2022-10-31T00:16:50;32.40;;;20.57;;
7541;SDS011;3812;50.006;8.230;2022-10-31T00:19:18;28.93;;;19.67;;
7541;SDS011;3812;50.006;8.230;2022-10-31T00:21:46;26.17;;;18.03;;
7541;SDS011;3812;50.006;8.230;2022-10-31T00:24:13;28.90;;;19.13;;
7541;SDS011;3812;50.006;8.230;2022-10-31T00:26:41;32.80;;;19.57;;
7541;SDS011;3812;50.006;8.230;2022-10-31T00:29:08;28.77;;;19.50;;
7541;SDS011;3812;50.006;8.230;2022-10-31T00:31:36;29.70;;;19.57;;
7541;SDS011;3812;50.006;8.230;2022-10-31T00:34:04;31.20;;;19.17;;
7541;SDS011;3812;50.006;8.230;2022-10-31T00:36:31;28.13;;;19.23;;
7541;SDS011;3812;50.006;8.230;2022-10-31T00:39:00;28.60;;;18.70;;
7541;SDS011;3812;50.006;8.230;2022-10-31T00:41:27;26.97;;;18.07;;
7541;SDS011;3812;50.006;8.230;2022-10-31T00:43:55;30.47;;;19.20;;
7541;SDS011;3812;50.006;8.230;2022-10-31T00:46:22;34.70;;;20.73;;
7541;SDS011;3812;50.006;8.230;2022-10-31T00:48:49;30.77;;;19.00;;
7541;SDS011;3812;50.006;8.230;2022-10-31T00:51:17;28.97;;;19.13;;
7541;SDS011;3812;50.006;8.230;2022-10-31T00:53:44;30.53;;;19.43;;
7541;SDS011;3812;50.006;8.230;2022-10-31T00:56:13;28.70;;;18.30;;
7541;SDS011;3812;50.006;8.230;2022-10-31T00:58:41;30.00;;;18.70;;
7541;SDS011;3812;50.006;8.230;2022-10-31T01:01:08;28.60;;;18.70;;
7541;SDS011;3812;50.006;8.230;2022-10-31T01:03:36;24.17;;;17.80;;
7541;SDS011;3812;50.006;8.230;2022-10-31T01:06:09;29.20;;;19.03;;
7541;SDS011;3812;50.006;8.230;2022-10-31T01:08:37;27.20;;;18.37;;
7541;SDS011;3812;50.006;8.230;2022-10-31T01:11:05;24.33;;;17.87;;
7541;SDS011;3812;50.006;8.230;2022-10-31T01:13:34;29.60;;;18.33;;
7541;SDS011;3812;50.006;8.230;2022-10-31T01:16:03;29.10;;;18.07;;
7541;SDS011;3812;50.006;8.230;2022-10-31T01:18:31;27.03;;;17.83;;
7541;SDS011;3812;50.006;8.230;2022-10-31T01:21:01;32.20;;;18.57;;
7541;SDS011;3812;50.006;8.230;2022-10-31T01:23:28;29.40;;;17.53;;
7541;SDS011;3812;50.006;8.230;2022-10-31T01:26:02;23.63;;;16.03;;
7541;SDS011;3812;50.006;8.230;2022-10-31T01:28:31;27.43;;;17.80;;
7541;SDS011;3812;50.006;8.230;2022-10-31T01:31:04;25.03;;;17.37;;
7541;SDS011;3812;50.006;8.230;2022-10-31T01:33:33;31.33;;;18.37;;
7541;SDS011;3812;50.006;8.230;2022-10-31T01:36:00;28.27;;;16.93;;
7541;SDS011;3812;50.006;8.230;2022-10-31T01:38:28;31.07;;;17.17;;
7541;SDS011;3812;50.006;8.230;2022-10-31T01:40:55;29.73;;;18.00;;
7541;SDS011;3812;50.006;8.230;2022-10-31T01:43:23;25.03;;;17.27;;
7541;SDS011;3812;50.006;8.230;2022-10-31T01:45:52;22.00;;;15.80;;
7541;SDS011;3812;50.006;8.230;2022-10-31T01:48:23;25.20;;;16.73;;
7541;SDS011;3812;50.006;8.230;2022-10-31T01:50:53;25.77;;;16.97;;
7541;SDS011;3812;50.006;8.230;2022-10-31T01:53:21;24.53;;;15.80;;
7541;SDS011;3812;50.006;8.230;2022-10-31T01:55:49;30.10;;;19.27;;
7541;SDS011;3812;50.006;8.230;2022-10-31T01:58:18;33.83;;;18.00;;
7541;SDS011;3812;50.006;8.230;2022-10-31T02:00:46;29.50;;;18.70;;
7541;SDS011;3812;50.006;8.230;2022-10-31T02:03:15;29.87;;;17.93;;
7541;SDS011;3812;50.006;8.230;2022-10-31T02:05:44;28.37;;;16.27;;
7541;SDS011;3812;50.006;8.230;2022-10-31T02:08:12;27.17;;;16.53;;
7541;SDS011;3812;50.006;8.230;2022-10-31T02:10:41;27.07;;;16.13;;
7541;SDS011;3812;50.006;8.230;2022-10-31T02:13:09;24.27;;;15.90;;
7541;SDS011;3812;50.006;8.230;2022-10-31T02:15:44;27.30;;;14.93;;
7541;SDS011;3812;50.006;8.230;2022-10-31T02:18:12;27.20;;;15.23;;
7541;SDS011;3812;50.006;8.230;2022-10-31T02:20:43;22.23;;;14.90;;
7541;SDS011;3812;50.006;8.230;2022-10-31T02:31:33;25.67;;;14.50;;
7541;SDS011;3812;50.006;8.230;2022-10-31T02:34:05;21.13;;;13.70;;
7541;SDS011;3812;50.006;8.230;2022-10-31T02:36:35;21.77;;;13.57;;
7541;SDS011;3812;50.006;8.230;2022-10-31T02:39:10;24.10;;;14.43;;
7541;SDS011;3812;50.006;8.230;2022-10-31T02:41:44;27.30;;;15.70;;
7541;SDS011;3812;50.006;8.230;2022-10-31T02:44:15;24.77;;;13.37;;
7541;SDS011;3812;50.006;8.230;2022-10-31T02:46:47;19.63;;;13.53;;
7541;SDS011;3812;50.006;8.230;2022-10-31T02:49:18;26.10;;;14.93;;
7541;SDS011;3812;50.006;8.230;2022-10-31T02:51:47;34.37;;;17.30;;
7541;SDS011;3812;50.006;8.230;2022-10-31T02:54:18;23.83;;;15.20;;
7541;SDS011;3812;50.006;8.230;2022-10-31T02:56:49;22.30;;;14.30;;
7541;SDS011;3812;50.006;8.230;2022-10-31T02:59:17;22.30;;;14.27;;
7541;SDS011;3812;50.006;8.230;2022-10-31T03:01:53;24.80;;;15.00;;
7541;SDS011;3812;50.006;8.230;2022-10-31T03:07:25;21.97;;;13.83;;
7541;SDS011;3812;50.006;8.230;2022-10-31T03:09:59;21.57;;;13.90;;
7541;SDS011;3812;50.006;8.230;2022-10-31T03:12:33;21.73;;;13.63;;
7541;SDS011;3812;50.006;8.230;2022-10-31T03:15:06;22.23;;;13.70;;
7541;SDS011;3812;50.006;8.230;2022-10-31T03:17:41;27.40;;;14.33;;
7541;SDS011;3812;50.006;8.230;2022-10-31T03:20:11;26.83;;;14.00;;
7541;SDS011;3812;50.006;8.230;2022-10-31T03:22:39;23.53;;;14.13;;
7541;SDS011;3812;50.006;8.230;2022-10-31T03:25:07;19.53;;;12.93;;
7541;SDS011;3812;50.006;8.230;2022-10-31T03:27:35;23.53;;;13.67;;
7541;SDS011;3812;50.006;8.230;2022-10-31T03:30:04;25.23;;;15.13;;
7541;SDS011;3812;50.006;8.230;2022-10-31T03:32:44;26.77;;;14.70;;
7541;SDS011;3812;50.006;8.230;2022-10-31T03:35:14;20.27;;;13.30;;
7541;SDS011;3812;50.006;8.230;2022-10-31T03:37:42;22.53;;;13.93;;
7541;SDS011;3812;50.006;8.230;2022-10-31T03:40:13;21.67;;;13.77;;
7541;SDS011;3812;50.006;8.230;2022-10-31T03:42:42;19.73;;;13.50;;
7541;SDS011;3812;50.006;8.230;2022-10-31T03:45:11;21.03;;;12.53;;
7541;SDS011;3812;50.006;8.230;2022-10-31T03:47:40;18.23;;;12.73;;
7541;SDS011;3812;50.006;8.230;2022-10-31T03:50:10;19.03;;;12.80;;
7541;SDS011;3812;50.006;8.230;2022-10-31T03:52:41;17.13;;;11.83;;
7541;SDS011;3812;50.006;8.230;2022-10-31T03:55:10;18.23;;;12.83;;
7541;SDS011;3812;50.006;8.230;2022-10-31T03:57:41;23.90;;;13.07;;
7541;SDS011;3812;50.006;8.230;2022-10-31T04:00:11;20.23;;;12.63;;
7541;SDS011;3812;50.006;8.230;2022-10-31T04:02:46;22.07;;;13.53;;
7541;SDS011;3812;50.006;8.230;2022-10-31T04:05:17;21.60;;;13.40;;
7541;SDS011;3812;50.006;8.230;2022-10-31T04:07:45;22.17;;;12.87;;
7541;SDS011;3812;50.006;8.230;2022-10-31T04:10:14;24.80;;;14.10;;
7541;SDS011;3812;50.006;8.230;2022-10-31T04:12:42;24.43;;;14.57;;
7541;SDS011;3812;50.006;8.230;2022-10-31T04:15:16;29.67;;;15.30;;
7541;SDS011;3812;50.006;8.230;2022-10-31T04:17:44;23.60;;;14.50;;
7541;SDS011;3812;50.006;8.230;2022-10-31T04:20:15;22.03;;;13.87;;
7541;SDS011;3812;50.006;8.230;2022-10-31T04:22:43;21.70;;;13.97;;
7541;SDS011;3812;50.006;8.230;2022-10-31T04:25:11;20.33;;;13.90;;
7541;SDS011;3812;50.006;8.230;2022-10-31T04:27:38;20.33;;;13.73;;
7541;SDS011;3812;50.006;8.230;2022-10-31T04:30:08;22.10;;;14.33;;
7541;SDS011;3812;50.006;8.230;2022-10-31T04:32:38;22.07;;;13.23;;
7541;SDS011;3812;50.006;8.230;2022-10-31T04:35:06;21.93;;;13.37;;
7541;SDS011;3812;50.006;8.230;2022-10-31T04:37:34;19.23;;;13.57;;
7541;SDS011;3812;50.006;8.230;2022-10-31T04:40:04;23.77;;;15.60;;
7541;SDS011;3812;50.006;8.230;2022-10-31T04:42:50;23.33;;;13.90;;
7541;SDS011;3812;50.006;8.230;2022-10-31T04:45:18;22.90;;;13.80;;
7541;SDS011;3812;50.006;8.230;2022-10-31T04:47:47;21.97;;;13.90;;
7541;SDS011;3812;50.006;8.230;2022-10-31T04:50:14;25.27;;;13.37;;
7541;SDS011;3812;50.006;8.230;2022-10-31T04:52:43;21.23;;;13.20;;
7541;SDS011;3812;50.006;8.230;2022-10-31T04:55:15;22.03;;;13.33;;
7541;SDS011;3812;50.006;8.230;2022-10-31T04:58:12;26.63;;;13.77;;
7541;SDS011;3812;50.006;8.230;2022-10-31T05:00:40;31.30;;;15.63;;
7541;SDS011;3812;50.006;8.230;2022-10-31T05:03:07;24.73;;;14.47;;
7541;SDS011;3812;50.006;8.230;2022-10-31T05:05:34;23.67;;;13.90;;
7541;SDS011;3812;50.006;8.230;2022-10-31T05:08:02;22.53;;;13.93;;
7541;SDS011;3812;50.006;8.230;2022-10-31T05:10:32;26.03;;;14.50;;
7541;SDS011;3812;50.006;8.230;2022-10-31T05:13:01;25.17;;;14.63;;
7541;SDS011;3812;50.006;8.230;2022-10-31T05:15:47;23.47;;;14.40;;
7541;SDS011;3812;50.006;8.230;2022-10-31T05:18:17;24.47;;;14.27;;
7541;SDS011;3812;50.006;8.230;2022-10-31T05:21:03;23.63;;;13.13;;
7541;SDS011;3812;50.006;8.230;2022-10-31T05:23:35;22.17;;;13.83;;
7541;SDS011;3812;50.006;8.230;2022-10-31T05:26:05;25.53;;;13.50;;
7541;SDS011;3812;50.006;8.230;2022-10-31T05:28:33;22.37;;;12.93;;
7541;SDS011;3812;50.006;8.230;2022-10-31T05:31:02;21.13;;;12.57;;
7541;SDS011;3812;50.006;8.230;2022-10-31T05:33:30;25.20;;;13.10;;
7541;SDS011;3812;50.006;8.230;2022-10-31T05:36:16;22.37;;;13.53;;
7541;SDS011;3812;50.006;8.230;2022-10-31T05:38:50;24.40;;;12.83;;
7541;SDS011;3812;50.006;8.230;2022-10-31T05:41:28;20.67;;;13.00;;
7541;SDS011;3812;50.006;8.230;2022-10-31T05:44:05;20.20;;;13.37;;
7541;SDS011;3812;50.006;8.230;2022-10-31T05:46:45;25.33;;;13.17;;
7541;SDS011;3812;50.006;8.230;2022-10-31T05:49:18;22.77;;;13.93;;
7541;SDS011;3812;50.006;8.230;2022-10-31T05:51:58;25.00;;;13.20;;
7541;SDS011;3812;50.006;8.230;2022-10-31T05:54:35;23.87;;;13.47;;
7541;SDS011;3812;50.006;8.230;2022-10-31T05:57:04;18.97;;;11.83;;
7541;SDS011;3812;50.006;8.230;2022-10-31T05:59:31;22.70;;;13.30;;
7541;SDS011;3812;50.006;8.230;2022-10-31T06:01:59;26.43;;;12.77;;
7541;SDS011;3812;50.006;8.230;2022-10-31T06:04:50;22.73;;;12.97;;
7541;SDS011;3812;50.006;8.230;2022-10-31T06:07:18;22.30;;;13.33;;
7541;SDS011;3812;50.006;8.230;2022-10-31T06:09:45;18.47;;;11.63;;
7541;SDS011;3812;50.006;8.230;2022-10-31T06:12:14;18.73;;;11.83;;
7541;SDS011;3812;50.006;8.230;2022-10-31T06:15:08;20.33;;;12.20;;
7541;SDS011;3812;50.006;8.230;2022-10-31T06:17:35;21.40;;;12.00;;
7541;SDS011;3812;50.006;8.230;2022-10-31T06:20:23;17.33;;;11.67;;
7541;SDS011;3812;50.006;8.230;2022-10-31T06:23:02;19.53;;;12.00;;
7541;SDS011;3812;50.006;8.230;2022-10-31T06:25:31;18.00;;;11.90;;
7541;SDS011;3812;50.006;8.230;2022-10-31T06:28:00;18.67;;;11.73;;
7541;SDS011;3812;50.006;8.230;2022-10-31T06:30:37;20.03;;;13.00;;
7541;SDS011;3812;50.006;8.230;2022-10-31T06:33:04;19.40;;;11.47;;
7541;SDS011;3812;50.006;8.230;2022-10-31T06:35:36;18.73;;;12.13;;
7541;SDS011;3812;50.006;8.230;2022-10-31T06:38:03;18.90;;;12.20;;
7541;SDS011;3812;50.006;8.230;2022-10-31T06:40:38;21.27;;;12.20;;
7541;SDS011;3812;50.006;8.230;2022-10-31T06:43:16;17.33;;;11.77;;
7541;SDS011;3812;50.006;8.230;2022-10-31T06:45:44;18.60;;;11.73;;
7541;SDS011;3812;50.006;8.230;2022-10-31T06:48:20;17.13;;;12.03;;
7541;SDS011;3812;50.006;8.230;2022-10-31T06:51:06;20.13;;;13.57;;
7541;SDS011;3812;50.006;8.230;2022-10-31T06:53:33;21.67;;;12.43;;
7541;SDS011;3812;50.006;8.230;2022-10-31T06:56:02;22.87;;;13.00;;
7541;SDS011;3812;50.006;8.230;2022-10-31T06:58:36;18.47;;;11.53;;
7541;SDS011;3812;50.006;8.230;2022-10-31T07:01:06;19.87;;;13.00;;
7541;SDS011;3812;50.006;8.230;2022-10-31T07:03:33;20.73;;;12.90;;
7541;SDS011;3812;50.006;8.230;2022-10-31T07:06:01;17.67;;;12.63;;
7541;SDS011;3812;50.006;8.230;2022-10-31T07:08:28;18.83;;;12.53;;
7541;SDS011;3812;50.006;8.230;2022-10-31T07:10:57;19.90;;;11.90;;
7541;SDS011;3812;50.006;8.230;2022-10-31T07:13:27;21.77;;;12.20;;
7541;SDS011;3812;50.006;8.230;2022-10-31T07:16:06;17.37;;;12.33;;
7541;SDS011;3812;50.006;8.230;2022-10-31T07:18:35;17.80;;;12.30;;
7541;SDS011;3812;50.006;8.230;2022-10-31T07:21:03;21.17;;;12.67;;
7541;SDS011;3812;50.006;8.230;2022-10-31T07:23:30;21.83;;;12.90;;
7541;SDS011;3812;50.006;8.230;2022-10-31T07:26:16;22.50;;;13.27;;
7541;SDS011;3812;50.006;8.230;2022-10-31T07:28:46;18.57;;;12.50;;
7541;SDS011;3812;50.006;8.230;2022-10-31T07:31:17;19.37;;;11.97;;
7541;SDS011;3812;50.006;8.230;2022-10-31T07:33:44;19.57;;;12.40;;
7541;SDS011;3812;50.006;8.230;2022-10-31T07:36:27;16.83;;;12.17;;
7541;SDS011;3812;50.006;8.230;2022-10-31T07:39:02;16.43;;;12.27;;
7541;SDS011;3812;50.006;8.230;2022-10-31T07:41:32;17.03;;;12.30;;
7541;SDS011;3812;50.006;8.230;2022-10-31T07:43:59;19.53;;;12.20;;
7541;SDS011;3812;50.006;8.230;2022-10-31T07:47:03;18.30;;;13.03;;
7541;SDS011;3812;50.006;8.230;2022-10-31T07:49:50;16.63;;;12.83;;
7541;SDS011;3812;50.006;8.230;2022-10-31T07:52:38;22.50;;;13.13;;
7541;SDS011;3812;50.006;8.230;2022-10-31T07:55:24;23.20;;;14.23;;
7541;SDS011;3812;50.006;8.230;2022-10-31T07:57:56;23.23;;;14.37;;
7541;SDS011;3812;50.006;8.230;2022-10-31T08:00:23;20.63;;;14.03;;
7541;SDS011;3812;50.006;8.230;2022-10-31T08:02:59;20.47;;;13.43;;
7541;SDS011;3812;50.006;8.230;2022-10-31T08:05:45;21.90;;;13.67;;
7541;SDS011;3812;50.006;8.230;2022-10-31T08:08:31;18.87;;;12.93;;
7541;SDS011;3812;50.006;8.230;2022-10-31T08:10:58;16.23;;;12.27;;
7541;SDS011;3812;50.006;8.230;2022-10-31T08:13:25;16.53;;;12.00;;
7541;SDS011;3812;50.006;8.230;2022-10-31T08:15:53;16.63;;;12.07;;
7541;SDS011;3812;50.006;8.230;2022-10-31T08:18:25;19.67;;;12.10;;
7541;SDS011;3812;50.006;8.230;2022-10-31T08:20:53;17.23;;;10.47;;
7541;SDS011;3812;50.006;8.230;2022-10-31T08:23:21;14.33;;;10.57;;
7541;SDS011;3812;50.006;8.230;2022-10-31T08:25:48;18.37;;;11.97;;
7541;SDS011;3812;50.006;8.230;2022-10-31T08:28:16;14.60;;;10.10;;
7541;SDS011;3812;50.006;8.230;2022-10-31T08:30:46;17.40;;;10.60;;
7541;SDS011;3812;50.006;8.230;2022-10-31T08:33:33;15.03;;;10.10;;
7541;SDS011;3812;50.006;8.230;2022-10-31T08:36:26;16.67;;;10.60;;
7541;SDS011;3812;50.006;8.230;2022-10-31T08:39:11;14.67;;;9.90;;
7541;SDS011;3812;50.006;8.230;2022-10-31T08:41:38;13.90;;;9.93;;
7541;SDS011;3812;50.006;8.230;2022-10-31T08:44:10;12.20;;;10.00;;
7541;SDS011;3812;50.006;8.230;2022-10-31T08:46:37;13.47;;;9.30;;
7541;SDS011;3812;50.006;8.230;2022-10-31T08:49:06;13.90;;;8.70;;
7541;SDS011;3812;50.006;8.230;2022-10-31T08:51:33;13.97;;;9.67;;
7541;SDS011;3812;50.006;8.230;2022-10-31T08:54:00;16.70;;;9.57;;
7541;SDS011;3812;50.006;8.230;2022-10-31T08:56:46;13.53;;;8.17;;
7541;SDS011;3812;50.006;8.230;2022-10-31T08:59:27;15.53;;;9.83;;
7541;SDS011;3812;50.006;8.230;2022-10-31T09:02:17;13.60;;;9.30;;
7541;SDS011;3812;50.006;8.230;2022-10-31T09:04:46;13.33;;;9.90;;
7541;SDS011;3812;50.006;8.230;2022-10-31T09:07:13;13.57;;;8.87;;
7541;SDS011;3812;50.006;8.230;2022-10-31T09:09:41;12.90;;;9.43;;
7541;SDS011;3812;50.006;8.230;2022-10-31T09:12:09;16.23;;;10.13;;
7541;SDS011;3812;50.006;8.230;2022-10-31T09:14:55;15.23;;;9.47;;
7541;SDS011;3812;50.006;8.230;2022-10-31T09:17:27;14.63;;;8.93;;
7541;SDS011;3812;50.006;8.230;2022-10-31T09:20:14;15.77;;;9.67;;
7541;SDS011;3812;50.006;8.230;2022-10-31T09:22:41;12.07;;;9.07;;
7541;SDS011;3812;50.006;8.230;2022-10-31T09:25:09;13.20;;;8.63;;
7541;SDS011;3812;50.006;8.230;2022-10-31T09:27:38;13.73;;;9.17;;
7541;SDS011;3812;50.006;8.230;2022-10-31T09:30:06;13.27;;;8.80;;
7541;SDS011;3812;50.006;8.230;2022-10-31T09:32:34;12.77;;;8.30;;
7541;SDS011;3812;50.006;8.230;2022-10-31T09:35:02;16.07;;;8.90;;
7541;SDS011;3812;50.006;8.230;2022-10-31T09:37:32;12.77;;;9.30;;
7541;SDS011;3812;50.006;8.230;2022-10-31T09:39:59;15.60;;;9.33;;
7541;SDS011;3812;50.006;8.230;2022-10-31T09:42:49;14.30;;;9.47;;
7541;SDS011;3812;50.006;8.230;2022-10-31T09:45:25;16.73;;;8.90;;
7541;SDS011;3812;50.006;8.230;2022-10-31T09:48:02;14.73;;;9.77;;
7541;SDS011;3812;50.006;8.230;2022-10-31T09:50:36;14.30;;;9.23;;
7541;SDS011;3812;50.006;8.230;2022-10-31T09:53:30;19.07;;;10.00;;
7541;SDS011;3812;50.006;8.230;2022-10-31T09:56:00;15.20;;;9.63;;
7541;SDS011;3812;50.006;8.230;2022-10-31T09:58:29;15.57;;;10.13;;
7541;SDS011;3812;50.006;8.230;2022-10-31T10:00:58;15.00;;;9.50;;
7541;SDS011;3812;50.006;8.230;2022-10-31T10:03:31;19.00;;;10.37;;
7541;SDS011;3812;50.006;8.230;2022-10-31T10:06:11;14.13;;;9.33;;
7541;SDS011;3812;50.006;8.230;2022-10-31T10:09:13;15.70;;;9.93;;
7541;SDS011;3812;50.006;8.230;2022-10-31T10:12:00;16.43;;;8.97;;
7541;SDS011;3812;50.006;8.230;2022-10-31T10:14:33;15.97;;;9.20;;
7541;SDS011;3812;50.006;8.230;2022-10-31T10:17:07;14.20;;;9.77;;
7541;SDS011;3812;50.006;8.230;2022-10-31T10:19:45;19.80;;;10.07;;
7541;SDS011;3812;50.006;8.230;2022-10-31T10:22:15;15.20;;;9.10;;
7541;SDS011;3812;50.006;8.230;2022-10-31T10:24:52;14.40;;;9.50;;
7541;SDS011;3812;50.006;8.230;2022-10-31T10:27:23;16.43;;;10.60;;
7541;SDS011;3812;50.006;8.230;2022-10-31T10:29:53;15.07;;;10.23;;
7541;SDS011;3812;50.006;8.230;2022-10-31T10:32:22;15.63;;;8.97;;
7541;SDS011;3812;50.006;8.230;2022-10-31T10:34:50;13.00;;;8.60;;
7541;SDS011;3812;50.006;8.230;2022-10-31T10:37:21;13.60;;;9.13;;
7541;SDS011;3812;50.006;8.230;2022-10-31T10:39:53;13.33;;;8.73;;
7541;SDS011;3812;50.006;8.230;2022-10-31T10:42:21;18.63;;;9.47;;
7541;SDS011;3812;50.006;8.230;2022-10-31T10:45:13;14.00;;;9.67;;
7541;SDS011;3812;50.006;8.230;2022-10-31T10:48:01;15.10;;;8.47;;
7541;SDS011;3812;50.006;8.230;2022-10-31T10:50:31;15.83;;;8.30;;
7541;SDS011;3812;50.006;8.230;2022-10-31T10:53:01;17.87;;;9.00;;
7541;SDS011;3812;50.006;8.230;2022-10-31T10:55:35;14.73;;;8.67;;
7541;SDS011;3812;50.006;8.230;2022-10-31T10:58:04;13.03;;;8.73;;
7541;SDS011;3812;50.006;8.230;2022-10-31T11:00:34;17.03;;;8.77;;
7541;SDS011;3812;50.006;8.230;2022-10-31T11:03:03;9.67;;;7.33;;
7541;SDS011;3812;50.006;8.230;2022-10-31T11:05:33;16.97;;;7.50;;
7541;SDS011;3812;50.006;8.230;2022-10-31T11:08:01;14.03;;;8.50;;
7541;SDS011;3812;50.006;8.230;2022-10-31T11:10:28;16.00;;;8.43;;
7541;SDS011;3812;50.006;8.230;2022-10-31T11:15:50;11.93;;;6.87;;
7541;SDS011;3812;50.006;8.230;2022-10-31T11:18:19;14.20;;;8.27;;
7541;SDS011;3812;50.006;8.230;2022-10-31T11:20:50;15.23;;;8.40;;
7541;SDS011;3812;50.006;8.230;2022-10-31T11:23:18;14.27;;;8.33;;
7541;SDS011;3812;50.006;8.230;2022-10-31T11:25:49;16.37;;;7.90;;
7541;SDS011;3812;50.006;8.230;2022-10-31T11:28:17;11.77;;;7.83;;
7541;SDS011;3812;50.006;8.230;2022-10-31T11:30:45;12.73;;;7.97;;
7541;SDS011;3812;50.006;8.230;2022-10-31T11:33:18;12.97;;;7.70;;
7541;SDS011;3812;50.006;8.230;2022-10-31T11:35:46;16.00;;;7.97;;
7541;SDS011;3812;50.006;8.230;2022-10-31T11:38:15;12.83;;;8.00;;
7541;SDS011;3812;50.006;8.230;2022-10-31T11:40:51;12.93;;;7.17;;
7541;SDS011;3812;50.006;8.230;2022-10-31T11:43:19;12.77;;;8.20;;
7541;SDS011;3812;50.006;8.230;2022-10-31T11:45:46;8.70;;;6.90;;
7541;SDS011;3812;50.006;8.230;2022-10-31T11:48:15;14.70;;;9.03;;
7541;SDS011;3812;50.006;8.230;2022-10-31T11:50:47;14.70;;;8.77;;
7541;SDS011;3812;50.006;8.230;2022-10-31T11:53:16;15.80;;;8.70;;
7541;SDS011;3812;50.006;8.230;2022-10-31T11:55:44;13.60;;;9.20;;
7541;SDS011;3812;50.006;8.230;2022-10-31T11:58:21;14.83;;;8.80;;
7541;SDS011;3812;50.006;8.230;2022-10-31T12:00:49;10.57;;;7.70;;
7541;SDS011;3812;50.006;8.230;2022-10-31T12:03:23;13.10;;;8.10;;
7541;SDS011;3812;50.006;8.230;2022-10-31T12:05:55;12.47;;;6.90;;
7541;SDS011;3812;50.006;8.230;2022-10-31T12:08:25;14.17;;;8.33;;
7541;SDS011;3812;50.006;8.230;2022-10-31T12:10:58;11.60;;;7.03;;
7541;SDS011;3812;50.006;8.230;2022-10-31T12:13:30;14.80;;;7.60;;
7541;SDS011;3812;50.006;8.230;2022-10-31T12:16:00;11.13;;;7.10;;
7541;SDS011;3812;50.006;8.230;2022-10-31T12:18:31;13.23;;;7.10;;
7541;SDS011;3812;50.006;8.230;2022-10-31T12:21:12;14.00;;;7.13;;
7541;SDS011;3812;50.006;8.230;2022-10-31T12:23:44;12.47;;;7.07;;
7541;SDS011;3812;50.006;8.230;2022-10-31T12:26:15;9.33;;;6.57;;
7541;SDS011;3812;50.006;8.230;2022-10-31T12:28:47;11.80;;;6.47;;
7541;SDS011;3812;50.006;8.230;2022-10-31T12:31:22;13.20;;;7.23;;
7541;SDS011;3812;50.006;8.230;2022-10-31T12:33:53;12.13;;;6.37;;
7541;SDS011;3812;50.006;8.230;2022-10-31T12:36:28;12.23;;;6.70;;
7541;SDS011;3812;50.006;8.230;2022-10-31T12:41:45;17.70;;;7.07;;
7541;SDS011;3812;50.006;8.230;2022-10-31T12:44:25;15.87;;;6.63;;
7541;SDS011;3812;50.006;8.230;2022-10-31T12:47:00;12.27;;;6.70;;
7541;SDS011;3812;50.006;8.230;2022-10-31T12:52:20;10.60;;;6.63;;
7541;SDS011;3812;50.006;8.230;2022-10-31T12:54:55;12.77;;;6.73;;
7541;SDS011;3812;50.006;8.230;2022-10-31T12:57:29;10.17;;;7.03;;
7541;SDS011;3812;50.006;8.230;2022-10-31T12:59:59;12.77;;;6.90;;
7541;SDS011;3812;50.006;8.230;2022-10-31T13:02:29;12.40;;;6.40;;
7541;SDS011;3812;50.006;8.230;2022-10-31T13:05:00;11.93;;;6.40;;
7541;SDS011;3812;50.006;8.230;2022-10-31T13:07:31;12.40;;;6.30;;
7541;SDS011;3812;50.006;8.230;2022-10-31T13:10:01;9.20;;;5.87;;
7541;SDS011;3812;50.006;8.230;2022-10-31T13:12:30;12.77;;;6.67;;
7541;SDS011;3812;50.006;8.230;2022-10-31T13:14:59;11.47;;;6.60;;
7541;SDS011;3812;50.006;8.230;2022-10-31T13:17:30;11.97;;;6.60;;
7541;SDS011;3812;50.006;8.230;2022-10-31T13:20:03;13.80;;;7.73;;
7541;SDS011;3812;50.006;8.230;2022-10-31T13:22:33;13.97;;;6.77;;
7541;SDS011;3812;50.006;8.230;2022-10-31T13:25:03;13.70;;;7.17;;
7541;SDS011;3812;50.006;8.230;2022-10-31T13:27:35;12.83;;;7.63;;
7541;SDS011;3812;50.006;8.230;2022-10-31T13:30:12;10.33;;;8.00;;
7541;SDS011;3812;50.006;8.230;2022-10-31T13:32:41;12.13;;;8.20;;
7541;SDS011;3812;50.006;8.230;2022-10-31T13:35:12;14.17;;;8.93;;
7541;SDS011;3812;50.006;8.230;2022-10-31T13:37:43;16.40;;;8.50;;
7541;SDS011;3812;50.006;8.230;2022-10-31T13:40:14;13.17;;;8.57;;
7541;SDS011;3812;50.006;8.230;2022-10-31T13:42:46;14.90;;;8.93;;
7541;SDS011;3812;50.006;8.230;2022-10-31T13:45:17;14.37;;;8.50;;
7541;SDS011;3812;50.006;8.230;2022-10-31T13:47:54;11.90;;;7.87;;
7541;SDS011;3812;50.006;8.230;2022-10-31T13:50:23;12.00;;;8.17;;
7541;SDS011;3812;50.006;8.230;2022-10-31T13:52:52;12.83;;;8.67;;
7541;SDS011;3812;50.006;8.230;2022-10-31T13:55:34;16.17;;;8.57;;
7541;SDS011;3812;50.006;8.230;2022-10-31T13:58:03;16.90;;;9.50;;
7541;SDS011;3812;50.006;8.230;2022-10-31T14:00:31;17.47;;;8.87;;
7541;SDS011;3812;50.006;8.230;2022-10-31T14:03:00;15.23;;;9.73;;
7541;SDS011;3812;50.006;8.230;2022-10-31T14:05:29;16.23;;;9.40;;
7541;SDS011;3812;50.006;8.230;2022-10-31T14:07:59;17.00;;;8.30;;
7541;SDS011;3812;50.006;8.230;2022-10-31T14:10:27;13.87;;;8.70;;
7541;SDS011;3812;50.006;8.230;2022-10-31T14:13:02;16.60;;;8.30;;
7541;SDS011;3812;50.006;8.230;2022-10-31T14:15:30;15.37;;;9.07;;
7541;SDS011;3812;50.006;8.230;2022-10-31T14:17:58;17.40;;;8.30;;
7541;SDS011;3812;50.006;8.230;2022-10-31T14:20:34;14.63;;;7.77;;
7541;SDS011;3812;50.006;8.230;2022-10-31T14:23:25;15.37;;;8.07;;
7541;SDS011;3812;50.006;8.230;2022-10-31T14:26:05;10.43;;;7.20;;
7541;SDS011;3812;50.006;8.230;2022-10-31T14:28:33;13.20;;;6.93;;
7541;SDS011;3812;50.006;8.230;2022-10-31T14:31:01;12.07;;;7.03;;
7541;SDS011;3812;50.006;8.230;2022-10-31T14:33:29;12.73;;;7.67;;
7541;SDS011;3812;50.006;8.230;2022-10-31T14:36:00;14.03;;;7.57;;
7541;SDS011;3812;50.006;8.230;2022-10-31T14:38:48;9.43;;;6.03;;
7541;SDS011;3812;50.006;8.230;2022-10-31T14:44:14;9.10;;;5.87;;
7541;SDS011;3812;50.006;8.230;2022-10-31T14:46:46;10.93;;;6.37;;
7541;SDS011;3812;50.006;8.230;2022-10-31T14:49:23;8.67;;;5.33;;
7541;SDS011;3812;50.006;8.230;2022-10-31T14:51:53;12.80;;;7.07;;
7541;SDS011;3812;50.006;8.230;2022-10-31T14:54:23;10.47;;;6.70;;
7541;SDS011;3812;50.006;8.230;2022-10-31T14:56:53;12.37;;;6.50;;
7541;SDS011;3812;50.006;8.230;2022-10-31T14:59:22;13.20;;;7.30;;
7541;SDS011;3812;50.006;8.230;2022-10-31T15:01:53;10.83;;;6.60;;
7541;SDS011;3812;50.006;8.230;2022-10-31T15:04:22;11.23;;;6.53;;
7541;SDS011;3812;50.006;8.230;2022-10-31T15:06:51;14.20;;;7.03;;
7541;SDS011;3812;50.006;8.230;2022-10-31T15:09:20;13.27;;;7.60;;
7541;SDS011;3812;50.006;8.230;2022-10-31T15:11:49;15.10;;;7.87;;
7541;SDS011;3812;50.006;8.230;2022-10-31T15:14:20;11.53;;;7.73;;
7541;SDS011;3812;50.006;8.230;2022-10-31T15:16:48;14.53;;;7.77;;
7541;SDS011;3812;50.006;8.230;2022-10-31T15:19:16;13.20;;;7.07;;
7541;SDS011;3812;50.006;8.230;2022-10-31T15:21:45;14.87;;;7.07;;
7541;SDS011;3812;50.006;8.230;2022-10-31T15:24:13;11.67;;;7.37;;
7541;SDS011;3812;50.006;8.230;2022-10-31T15:26:44;12.90;;;6.67;;
7541;SDS011;3812;50.006;8.230;2022-10-31T15:29:14;9.00;;;6.87;;
7541;SDS011;3812;50.006;8.230;2022-10-31T15:31:48;13.23;;;7.57;;
7541;SDS011;3812;50.006;8.230;2022-10-31T15:34:17;13.37;;;7.27;;
7541;SDS011;3812;50.006;8.230;2022-10-31T15:36:47;12.77;;;7.60;;
7541;SDS011;3812;50.006;8.230;2022-10-31T15:39:15;10.27;;;6.77;;
7541;SDS011;3812;50.006;8.230;2022-10-31T15:41:44;10.93;;;6.93;;
7541;SDS011;3812;50.006;8.230;2022-10-31T15:44:16;12.03;;;6.97;;